Time;durP1;ratioP1;P1;durP2;ratioP2;P2;SDS_P1;SDS_P2;PMS_P1;PMS_P2;Temp;Humidity;BMP_temperature;BMP_pressure;BME280_temperature;BME280_humidity;BME280_pressure;Samples;Min_cycle;Max_cycle;Signal;HPM_P1;HPM_P2
2022/03/12 00:01:06;;;;;;;;;;;-0.30;79.10;;;-1.68;74.78;97435.03;4143887;33;20534;-83
2022/03/12 00:03:35;;;;;;;;;;;-0.20;79.20;;;-1.68;74.81;97435.03;4146910;33;19903;-83
2022/03/12 00:06:06;;;;;;;;;;;-0.30;78.90;;;-1.69;74.82;97433.38;4144759;33;20190;-83
2022/03/12 00:08:42;;;;;;;;;;;-0.20;79.10;;;-1.69;75.33;97438.72;4143338;33;24332;-83
2022/03/12 00:11:15;;;;;;;;;;;-0.30;79.00;;;-1.70;74.82;97439.72;4153534;33;20229;-83
2022/03/12 00:13:45;;;;;;;;;;;-0.20;79.20;;;-1.70;74.55;97447.78;4119470;33;20187;-83
2022/03/12 00:16:14;;;;;;;;;;;-0.20;79.10;;;-1.72;74.97;97439.91;4144410;33;20203;-82
2022/03/12 00:18:43;;;;;;;;;;;-0.30;79.10;;;-1.71;74.84;97444.28;4145602;33;20241;-83
2022/03/12 00:21:13;;;;;;;;;;;-0.20;79.10;;;-1.71;74.52;97443.41;4145600;33;19909;-83
2022/03/12 00:23:49;;;;;;;;;;;-0.30;79.10;;;-1.71;74.85;97443.41;4162809;33;19906;-83
2022/03/12 00:26:18;;;;;;;;;;;-0.30;79.10;;;-1.72;74.99;97444.41;4117704;33;19902;-83
2022/03/12 00:28:47;;;;;;;;;;;-0.30;79.10;;;-1.73;74.63;97448.09;4117140;33;20010;-83
2022/03/12 00:31:15;;;;;;;;;;;-0.30;79.10;;;-1.73;74.89;97448.97;4116974;33;19903;-83
2022/03/12 00:33:44;;;;;;;;;;;-0.30;79.20;;;-1.74;74.62;97447.28;4140241;33;20601;-83
2022/03/12 00:36:15;;;;;;;;;;;-0.30;79.10;;;-1.74;74.80;97457.16;4116484;33;19902;-83
2022/03/12 00:38:44;;;;;;;;;;;-0.30;79.20;;;-1.75;74.68;97456.34;4117130;33;20237;-83
2022/03/12 00:41:13;;;;;;;;;;;-0.30;79.10;;;-1.74;74.97;97451.78;4139953;33;20199;-83
2022/03/12 00:43:42;;;;;;;;;;;-0.30;79.10;;;-1.76;75.12;97451.13;4140879;33;19907;-83
2022/03/12 00:46:10;;;;;;;;;;;-0.30;79.10;;;-1.75;74.60;97452.81;4140854;33;20199;-83
2022/03/12 00:48:39;;;;;;;;;;;-0.30;79.10;;;-1.77;74.43;97452.13;4117560;33;19910;-83
2022/03/12 00:51:08;;;;;;;;;;;-0.30;79.00;;;-1.76;75.20;97451.13;4140970;33;20201;-83
2022/03/12 00:53:39;;;;;;;;;;;-0.30;79.10;;;-1.78;75.00;97451.28;4117396;33;19910;-83
2022/03/12 00:56:07;;;;;;;;;;;-0.30;79.10;;;-1.78;75.03;97455.81;4118111;33;20191;-83
2022/03/12 00:58:36;;;;;;;;;;;-0.30;79.20;;;-1.79;74.79;97448.75;4140110;33;20497;-83
2022/03/12 01:01:05;;;;;;;;;;;-0.40;78.90;;;-1.79;74.72;97457.66;4132182;33;20213;-82
2022/03/12 01:03:34;;;;;;;;;;;-0.30;79.10;;;-1.79;75.16;97465.69;4108643;33;20229;-82
2022/03/12 01:06:04;;;;;;;;;;;-0.30;79.30;;;-1.79;74.85;97465.69;4107769;33;19910;-83
2022/03/12 01:08:33;;;;;;;;;;;-0.40;79.20;;;-1.81;74.96;97466.88;4109482;33;20253;-82
2022/03/12 01:11:06;;;;;;;;;;;-0.40;79.20;;;-1.81;74.77;97464.19;4132318;33;20209;-82
2022/03/12 01:13:35;;;;;;;;;;;-0.40;79.10;;;-1.81;75.15;97461.50;4134440;33;20218;-82
2022/03/12 01:16:03;;;;;;;;;;;-0.40;79.10;;;-1.82;75.00;97460.69;4134340;33;20186;-82
2022/03/12 01:18:32;;;;;;;;;;;-0.40;79.40;;;-1.82;75.12;97459.81;4133521;33;19914;-83
2022/03/12 01:21:08;;;;;;;;;;;-0.40;79.10;;;-1.82;75.12;97465.19;4110208;33;20201;-83
2022/03/12 01:23:37;;;;;;;;;;;-0.40;79.10;;;-1.82;75.53;97457.13;4110690;33;19918;-83
2022/03/12 01:26:06;;;;;;;;;;;-0.40;79.20;;;-1.83;75.20;97463.50;4133298;33;20192;-83
2022/03/12 01:28:35;;;;;;;;;;;-0.40;79.10;;;-1.83;75.41;97464.34;4110116;33;20205;-83
2022/03/12 01:31:04;;;;;;;;;;;-0.40;79.20;;;-1.83;75.00;97463.50;4134127;33;19910;-82
2022/03/12 01:33:32;;;;;;;;;;;-0.40;79.20;;;-1.86;74.81;97454.75;4133990;33;20299;-83
2022/03/12 01:36:01;;;;;;;;;;;-0.40;79.20;;;-1.87;74.98;97458.44;4134173;33;20115;-82
2022/03/12 01:38:32;;;;;;;;;;;-0.40;79.10;;;-1.84;74.89;97462.69;4133452;33;20200;-83
2022/03/12 01:41:03;;;;;;;;;;;-0.40;80.00;;;-1.86;74.70;97464.69;4133697;33;20202;-83
2022/03/12 01:43:34;;;;;;;;;;;-0.40;78.90;;;-1.87;75.27;97466.50;4111840;33;20216;-83
2022/03/12 01:46:03;;;;;;;;;;;-0.40;79.10;;;-1.86;75.13;97470.03;4115546;33;19906;-83
2022/03/12 01:48:31;;;;;;;;;;;-0.40;79.30;;;-1.87;74.94;97463.00;4117000;33;20209;-83
2022/03/12 01:51:00;;;;;;;;;;;-0.40;79.40;;;-1.88;74.96;97464.84;4117684;33;20231;-82
2022/03/12 01:53:28;;;;;;;;;;;-0.40;79.10;;;-1.89;75.15;97468.53;4142835;33;20229;-82
2022/03/12 01:55:57;;;;;;;;;;;-0.40;79.10;;;-1.90;74.94;97464.16;4141349;33;19910;-83
2022/03/12 01:58:26;;;;;;;;;;;-0.50;79.10;;;-1.89;74.89;97476.59;4119126;33;19955;-83
2022/03/12 02:00:57;;;;;;;;;;;-0.50;79.10;;;-1.90;75.33;97474.91;4120073;33;20208;-83
2022/03/12 02:03:28;;;;;;;;;;;-0.40;79.10;;;-1.89;74.85;97476.59;4120796;33;20219;-83
2022/03/12 02:05:57;;;;;;;;;;;-0.50;79.20;;;-1.91;75.19;97472.34;4145265;33;20572;-83
2022/03/12 02:08:26;;;;;;;;;;;-0.50;79.40;;;-1.90;74.88;97472.22;4120041;33;20202;-83
2022/03/12 02:10:57;;;;;;;;;;;-0.40;79.20;;;-1.91;75.24;97481.25;4120143;33;19910;-82
2022/03/12 02:13:29;;;;;;;;;;;-0.50;79.40;;;-1.92;75.08;97471.53;4120403;33;20118;-82
2022/03/12 02:16:07;;;;;;;;;;;-0.50;79.50;;;-1.92;75.01;97484.94;4120002;33;20206;-83
2022/03/12 02:18:36;;;;;;;;;;;-0.50;79.40;;;-1.92;75.11;97486.78;4119891;33;19910;-83
2022/03/12 02:21:04;;;;;;;;;;;-0.50;79.30;;;-1.93;75.29;97485.94;4143779;33;19903;-83
2022/03/12 02:23:46;;;;;;;;;;;-0.50;79.30;;;-1.93;75.17;97483.25;4142665;33;20536;-83
2022/03/12 02:26:15;;;;;;;;;;;-0.50;79.40;;;-1.94;75.36;97483.44;4142825;33;20212;-83
2022/03/12 02:28:45;;;;;;;;;;;-0.50;79.40;;;-1.94;75.15;97486.94;4119373;33;19915;-83
2022/03/12 02:31:14;;;;;;;;;;;-0.50;79.40;;;-1.94;75.55;97488.78;4119499;33;19907;-83
2022/03/12 02:33:43;;;;;;;;;;;-0.50;79.40;;;-1.95;75.48;97492.47;4141598;33;19910;-83
2022/03/12 02:36:13;;;;;;;;;;;-0.50;79.40;;;-1.96;74.98;97491.63;4143220;33;20221;-83
2022/03/12 02:38:43;;;;;;;;;;;-0.50;79.30;;;-1.96;75.27;97490.78;4143287;33;19910;-83
2022/03/12 02:41:13;;;;;;;;;;;-0.50;79.30;;;-1.96;74.70;97496.16;4119788;33;20187;-83
2022/03/12 02:43:43;;;;;;;;;;;-0.50;79.30;;;-1.96;75.39;97497.00;4119489;33;19903;-83
2022/03/12 02:46:13;;;;;;;;;;;-0.50;79.50;;;-1.97;75.10;97489.94;4118855;33;19903;-83
2022/03/12 02:48:43;;;;;;;;;;;-0.50;79.40;;;-1.97;75.00;97499.84;4118295;33;19902;-83
2022/03/12 02:51:11;;;;;;;;;;;-0.50;79.40;;;-1.99;75.68;97507.22;4119333;33;20083;-83
2022/03/12 02:53:40;;;;;;;;;;;-0.50;79.60;;;-1.99;75.13;97502.66;4118799;33;19904;-83
2022/03/12 02:56:08;;;;;;;;;;;-0.60;79.30;;;-1.99;75.07;97508.03;4141776;33;19906;-83
2022/03/12 02:58:38;;;;;;;;;;;-0.60;79.40;;;-1.99;75.35;97510.72;4140902;33;20237;-84
2022/03/12 03:01:08;;;;;;;;;;;-0.60;79.50;;;-1.99;74.87;97509.88;4118576;33;20229;-83
2022/03/12 03:03:39;;;;;;;;;;;-0.60;79.20;;;-2.00;75.17;97519.75;4118568;33;20074;-83
2022/03/12 03:06:08;;;;;;;;;;;-0.60;79.20;;;-1.99;75.25;97520.63;4141939;33;19903;-82
2022/03/12 03:08:39;;;;;;;;;;;-0.60;79.30;;;-2.01;75.20;97521.63;4117411;33;19911;-83
2022/03/12 03:11:12;;;;;;;;;;;-0.60;79.30;;;-2.02;75.12;97519.09;4117000;33;20198;-83
2022/03/12 03:13:44;;;;;;;;;;;-0.60;79.20;;;-2.02;74.88;97519.94;4117097;33;20208;-83
2022/03/12 03:16:21;;;;;;;;;;;-0.60;79.40;;;-2.02;75.10;97522.63;4116902;33;19903;-83
2022/03/12 03:18:52;;;;;;;;;;;-0.60;79.30;;;-2.02;75.76;97521.78;4116689;33;19903;-82
2022/03/12 03:21:23;;;;;;;;;;;-0.60;79.60;;;-2.04;75.39;97526.47;4117027;33;20215;-82
2022/03/12 03:23:53;;;;;;;;;;;-0.60;79.50;;;-2.03;74.81;97528.16;4116796;33;19902;-83
2022/03/12 03:26:43;;;;;;;;;;;-0.60;79.40;;;-2.04;75.18;97531.84;4116423;33;20198;-84
2022/03/12 03:29:13;;;;;;;;;;;-0.60;79.40;;;-2.05;75.40;97530.97;4139946;33;20195;-83
2022/03/12 03:31:44;;;;;;;;;;;-0.60;79.40;;;-2.03;75.28;97538.88;4142216;33;19903;-83
2022/03/12 03:34:13;;;;;;;;;;;-0.60;79.40;;;-2.06;75.09;97536.50;4141753;33;20220;-82
2022/03/12 03:36:41;;;;;;;;;;;-0.60;79.40;;;-2.05;75.32;97543.56;4164081;33;19933;-82
2022/03/12 03:39:10;;;;;;;;;;;-0.60;79.50;;;-2.06;75.14;97544.56;4118182;33;20579;-83
2022/03/12 03:41:38;;;;;;;;;;;-0.60;79.40;;;-2.06;74.77;97549.94;4119177;33;20198;-83
2022/03/12 03:44:07;;;;;;;;;;;-0.60;79.50;;;-2.07;75.10;97553.59;4121388;33;20225;-83
2022/03/12 03:46:37;;;;;;;;;;;-0.60;79.40;;;-2.07;75.39;97545.56;4118838;33;20248;-83
2022/03/12 03:49:06;;;;;;;;;;;-0.60;79.50;;;-2.07;75.15;97553.59;4118562;33;20236;-83
2022/03/12 03:51:41;;;;;;;;;;;-0.60;79.50;;;-2.09;75.27;97550.22;4118291;33;19914;-83
2022/03/12 03:54:13;;;;;;;;;;;-0.60;79.50;;;-2.09;75.21;97544.88;4116075;33;20193;-82
2022/03/12 03:56:42;;;;;;;;;;;-0.70;79.60;;;-2.09;75.31;97542.19;4115269;33;20569;-83
2022/03/12 03:59:11;;;;;;;;;;;-0.60;79.60;;;-2.10;75.19;97548.53;4132230;33;20220;-83
2022/03/12 04:01:41;;;;;;;;;;;-0.70;79.50;;;-2.11;75.42;97553.09;4109545;33;19910;-83
2022/03/12 04:04:12;;;;;;;;;;;-0.70;79.50;;;-2.11;75.12;97554.91;4109510;33;19902;-83
2022/03/12 04:06:41;;;;;;;;;;;-0.70;79.60;;;-2.12;75.23;97558.59;4109488;33;19903;-83
2022/03/12 04:09:09;;;;;;;;;;;-0.70;79.50;;;-2.12;75.10;97561.28;4132252;33;20191;-83
2022/03/12 04:11:38;;;;;;;;;;;-0.70;79.70;;;-2.12;74.99;97562.13;4109689;33;20229;-83
2022/03/12 04:14:07;;;;;;;;;;;-0.70;80.40;;;-2.11;75.47;97562.97;4129780;33;19925;-83
2022/03/12 04:16:36;;;;;;;;;;;-0.60;79.70;;;-2.13;75.46;97564.97;4129843;33;20210;-83
2022/03/12 04:19:05;;;;;;;;;;;-0.70;79.60;;;-2.14;75.09;97563.28;4105790;33;20195;-83
2022/03/12 04:21:34;;;;;;;;;;;-0.70;79.50;;;-2.14;75.57;97557.94;4129017;33;20487;-83
2022/03/12 04:24:03;;;;;;;;;;;-0.70;79.70;;;-2.14;75.48;97557.94;4106088;33;19903;-83
2022/03/12 04:26:35;;;;;;;;;;;-0.70;79.70;;;-2.14;75.57;97558.75;4128653;33;20214;-83
2022/03/12 04:29:04;;;;;;;;;;;-0.70;79.70;;;-2.14;75.35;97555.25;4129262;33;20214;-83
2022/03/12 04:31:33;;;;;;;;;;;-0.70;79.50;;;-2.16;75.58;97556.25;4106151;33;19910;-83
2022/03/12 04:34:01;;;;;;;;;;;-0.70;79.70;;;-2.16;75.50;97560.75;4129511;33;20215;-84
2022/03/12 04:36:34;;;;;;;;;;;-0.70;80.50;;;-2.16;75.22;97558.94;4106500;33;19903;-83
2022/03/12 04:39:04;;;;;;;;;;;-0.70;79.60;;;-2.16;75.72;97563.44;4130712;33;20118;-84
2022/03/12 04:41:34;;;;;;;;;;;-0.70;79.60;;;-2.16;75.21;97566.13;4131308;33;20185;-83
2022/03/12 04:44:04;;;;;;;;;;;-0.70;79.60;;;-2.17;75.11;97569.78;4131627;33;20216;-83
2022/03/12 04:46:32;;;;;;;;;;;-0.70;79.60;;;-2.18;75.17;97563.59;4134333;33;20252;-83
2022/03/12 04:49:01;;;;;;;;;;;-0.70;79.50;;;-2.18;75.69;97570.78;4135214;33;20212;-83
2022/03/12 04:51:31;;;;;;;;;;;-0.70;79.60;;;-2.17;75.47;97573.34;4139365;33;19903;-83
2022/03/12 04:53:59;;;;;;;;;;;-0.70;79.70;;;-2.07;74.87;97573.25;4136807;33;20118;-83
2022/03/12 04:56:28;;;;;;;;;;;-0.60;79.40;;;-1.95;75.10;97573.81;4110245;33;20236;-84
2022/03/12 04:58:57;;;;;;;;;;;-0.50;79.20;;;-1.80;74.58;97573.25;4134731;33;19914;-84
2022/03/12 05:01:25;;;;;;;;;;;-0.30;78.80;;;-1.66;74.22;97569.13;4115689;33;20194;-83
2022/03/12 05:03:54;;;;;;;;;;;-0.20;78.10;;;-1.49;73.36;97578.97;4115429;33;20239;-83
2022/03/12 05:06:24;;;;;;;;;;;0.00;77.50;;;-1.32;73.18;97574.50;4138616;33;20531;-84
2022/03/12 05:08:55;;;;;;;;;;;0.20;76.70;;;-1.11;72.18;97579.47;4138142;33;20222;-83
2022/03/12 05:11:24;;;;;;;;;;;0.50;76.00;;;-0.86;71.59;97574.16;4115954;33;20213;-83
2022/03/12 05:13:53;;;;;;;;;;;0.80;75.70;;;-0.59;70.64;97574.06;4115661;33;20087;-83
2022/03/12 05:16:22;;;;;;;;;;;1.10;73.60;;;-0.34;69.34;97583.00;4138653;33;20175;-82
2022/03/12 05:18:50;;;;;;;;;;;1.30;72.20;;;-0.15;67.88;97579.13;4113042;33;19902;-83
2022/03/12 05:21:19;;;;;;;;;;;1.50;70.90;;;0.00;67.43;97563.16;4115502;33;20250;-82
2022/03/12 05:23:47;;;;;;;;;;;1.60;70.00;;;0.10;66.46;97568.34;4138296;33;19914;-83
2022/03/12 05:26:17;;;;;;;;;;;1.70;69.10;;;0.16;66.14;97573.06;4138274;33;20591;-83
2022/03/12 05:28:46;;;;;;;;;;;1.70;68.50;;;0.20;65.90;97568.16;4115147;33;20215;-83
2022/03/12 05:31:15;;;;;;;;;;;1.80;68.20;;;0.21;65.34;97575.25;4115252;33;19903;-83
2022/03/12 05:33:44;;;;;;;;;;;1.80;68.00;;;0.21;65.13;97580.63;4140180;33;19932;-83
2022/03/12 05:36:13;;;;;;;;;;;1.70;67.70;;;0.23;64.65;97584.00;4140300;33;19903;-83
2022/03/12 05:38:41;;;;;;;;;;;1.70;67.50;;;0.25;65.15;97582.81;4116803;33;20229;-82
2022/03/12 05:41:11;;;;;;;;;;;1.80;67.70;;;0.29;64.88;97581.47;4117263;33;19910;-83
2022/03/12 05:43:45;;;;;;;;;;;1.80;67.50;;;0.35;64.94;97588.00;4117733;33;19903;-82
2022/03/12 05:46:15;;;;;;;;;;;2.00;67.20;;;0.44;64.78;97596.94;4117059;33;20204;-83
2022/03/12 05:48:45;;;;;;;;;;;2.10;66.80;;;0.57;63.90;97594.53;4140444;33;20130;-83
2022/03/12 05:51:14;;;;;;;;;;;2.30;66.10;;;0.73;63.69;97598.19;4162677;33;20210;-83
2022/03/12 05:53:43;;;;;;;;;;;2.60;65.10;;;0.91;63.19;97597.94;4116835;33;19903;-83
2022/03/12 05:56:12;;;;;;;;;;;2.90;63.70;;;1.11;62.35;97598.38;4117070;33;20496;-83
2022/03/12 05:58:42;;;;;;;;;;;3.30;62.70;;;1.34;61.38;97600.31;4116563;33;19911;-83
2022/03/12 06:01:10;;;;;;;;;;;3.50;61.20;;;1.49;61.06;97586.88;4143241;33;20122;-83
2022/03/12 06:03:39;;;;;;;;;;;3.70;59.80;;;1.54;59.85;97576.41;4119989;33;20225;-83
2022/03/12 06:06:08;;;;;;;;;;;3.80;58.80;;;1.48;59.63;97566.31;4142543;33;19914;-82
2022/03/12 06:08:38;;;;;;;;;;;3.60;58.60;;;1.36;60.55;97571.25;4117229;33;20484;-82
2022/03/12 06:11:07;;;;;;;;;;;3.40;59.40;;;1.17;62.15;97586.03;4117996;33;20197;-82
2022/03/12 06:13:36;;;;;;;;;;;3.10;61.50;;;0.99;62.71;97589.84;4119196;33;20377;-81
2022/03/12 06:16:06;;;;;;;;;;;2.80;62.70;;;0.79;63.23;97600.19;4142518;33;20423;-82
2022/03/12 06:18:36;;;;;;;;;;;2.60;63.90;;;0.58;64.42;97606.16;4142798;33;20071;-82
2022/03/12 06:21:06;;;;;;;;;;;2.30;65.30;;;0.36;65.35;97605.88;4119756;33;19902;-81
2022/03/12 06:23:35;;;;;;;;;;;2.10;66.40;;;0.20;66.04;97616.66;4143955;33;20194;-81
2022/03/12 06:26:04;;;;;;;;;;;1.90;67.60;;;0.05;66.96;97613.81;4145259;33;19910;-81
2022/03/12 06:28:38;;;;;;;;;;;1.70;68.70;;;-0.06;66.96;97623.88;4144816;33;20576;-82
2022/03/12 06:31:07;;;;;;;;;;;1.50;69.50;;;-0.16;67.66;97628.59;4144611;33;20191;-82
2022/03/12 06:33:36;;;;;;;;;;;1.40;70.10;;;-0.22;67.81;97634.66;4145524;33;20583;-83
2022/03/12 06:36:05;;;;;;;;;;;1.30;70.60;;;-0.29;68.21;97628.22;4144222;33;19902;-82
2022/03/12 06:38:35;;;;;;;;;;;1.30;71.10;;;-0.33;68.25;97625.03;4145255;33;20207;-82
2022/03/12 06:41:03;;;;;;;;;;;1.20;71.60;;;-0.36;68.73;97622.66;4119981;33;20114;-82
2022/03/12 06:43:33;;;;;;;;;;;1.10;71.90;;;-0.41;68.97;97615.09;4142813;33;20215;-81
2022/03/12 06:46:02;;;;;;;;;;;1.10;72.40;;;-0.41;69.37;97623.19;4116583;33;20199;-82
2022/03/12 06:48:32;;;;;;;;;;;1.10;72.70;;;-0.42;69.29;97624.19;4115801;33;19903;-82
2022/03/12 06:51:01;;;;;;;;;;;1.00;72.70;;;-0.44;69.69;97619.97;4138682;33;20217;-82
2022/03/12 06:53:30;;;;;;;;;;;1.00;73.10;;;-0.42;69.70;97623.34;4116178;33;20228;-81
2022/03/12 06:55:59;;;;;;;;;;;1.00;73.30;;;-0.43;69.76;97617.13;4139496;33;20381;-82
2022/03/12 06:58:29;;;;;;;;;;;1.00;73.30;;;-0.40;69.80;97622.16;4115132;33;20214;-82
2022/03/12 07:00:58;;;;;;;;;;;1.00;73.50;;;-0.41;70.06;97620.47;4139444;33;20221;-82
2022/03/12 07:03:26;;;;;;;;;;;1.00;73.70;;;-0.39;70.13;97631.09;4115481;33;19903;-82
2022/03/12 07:05:56;;;;;;;;;;;1.00;73.80;;;-0.37;70.37;97626.38;4115549;33;20572;-82
2022/03/12 07:08:25;;;;;;;;;;;1.00;73.90;;;-0.34;69.82;97637.66;4138431;33;20589;-82
2022/03/12 07:10:54;;;;;;;;;;;1.00;74.00;;;-0.32;70.35;97634.78;4139148;33;19902;-81
2022/03/12 07:13:23;;;;;;;;;;;1.00;74.10;;;-0.29;70.25;97633.63;4116057;33;20451;-83
2022/03/12 07:15:51;;;;;;;;;;;1.10;74.30;;;-0.26;70.27;97639.53;4138594;33;20201;-82
2022/03/12 07:18:20;;;;;;;;;;;1.10;74.30;;;-0.25;70.55;97635.81;4138195;33;19910;-83
2022/03/12 07:20:48;;;;;;;;;;;1.10;74.40;;;-0.23;70.29;97633.78;4138558;33;20196;-83
2022/03/12 07:23:19;;;;;;;;;;;1.10;74.50;;;-0.21;70.28;97630.94;4115591;33;20134;-82
2022/03/12 07:25:48;;;;;;;;;;;1.10;74.60;;;-0.17;70.61;97627.75;4118047;33;20573;-82
2022/03/12 07:28:19;;;;;;;;;;;1.10;74.60;;;-0.14;70.69;97631.97;4141318;33;19903;-83
2022/03/12 07:30:47;;;;;;;;;;;1.20;74.80;;;-0.12;70.49;97632.63;4140873;33;20184;-82
2022/03/12 07:33:16;;;;;;;;;;;1.20;74.70;;;-0.08;70.23;97628.59;4116476;33;19910;-83
2022/03/12 07:35:45;;;;;;;;;;;1.20;74.60;;;-0.05;70.13;97628.25;4116444;33;20206;-82
2022/03/12 07:38:14;;;;;;;;;;;1.30;74.60;;;-0.03;70.35;97622.72;4139774;33;20544;-84
2022/03/12 07:40:44;;;;;;;;;;;1.30;75.30;;;0.01;70.07;97628.59;4118860;33;20214;-82
2022/03/12 07:43:13;;;;;;;;;;;1.30;74.40;;;0.03;69.91;97626.59;4140928;33;19926;-82
2022/03/12 07:45:41;;;;;;;;;;;1.30;74.30;;;0.03;69.90;97632.78;4140242;33;20213;-83
2022/03/12 07:48:10;;;;;;;;;;;1.30;74.20;;;0.04;69.76;97637.19;4115897;33;19903;-83
2022/03/12 07:50:39;;;;;;;;;;;1.30;74.10;;;0.05;70.03;97635.34;4137600;33;20209;-82
2022/03/12 07:53:07;;;;;;;;;;;1.30;74.00;;;0.06;69.68;97635.16;4110681;33;20304;-83
2022/03/12 07:55:36;;;;;;;;;;;1.30;74.00;;;0.07;69.73;97638.69;4134300;33;20470;-83
2022/03/12 07:58:06;;;;;;;;;;;1.30;74.00;;;0.08;69.97;97638.53;4134334;33;20199;-83
2022/03/12 08:00:34;;;;;;;;;;;1.40;74.00;;;0.08;69.72;97635.84;4109814;33;20456;-83
2022/03/12 08:03:03;;;;;;;;;;;1.40;73.90;;;0.09;69.82;97636.66;4107660;33;20231;-83
2022/03/12 08:05:31;;;;;;;;;;;1.40;74.00;;;0.08;69.66;97634.97;4130515;33;19929;-83
2022/03/12 08:08:02;;;;;;;;;;;1.40;74.00;;;0.09;69.81;97639.34;4107775;33;20202;-83
2022/03/12 08:11:24;;;;;;;;;;;1.40;74.10;;;0.07;69.79;97636.84;4105916;33;20166;-82
2022/03/12 08:13:21;;;;;;;;;;;1.40;74.10;;;0.07;69.90;97630.59;4107416;33;20196;-83
2022/03/12 08:15:50;;;;;;;;;;;1.40;74.10;;;0.07;70.18;97638.69;4130112;33;20207;-83
2022/03/12 08:18:19;;;;;;;;;;;1.40;74.20;;;0.07;69.79;97630.59;4107325;33;19903;-82
2022/03/12 08:20:47;;;;;;;;;;;1.40;74.10;;;0.06;70.09;97637.03;4130220;33;19902;-82
2022/03/12 08:23:16;;;;;;;;;;;1.40;74.10;;;0.05;70.14;97635.34;4106600;33;20215;-82
2022/03/12 08:25:44;;;;;;;;;;;1.30;74.20;;;0.04;70.16;97633.66;4132121;33;20194;-82
2022/03/12 08:28:14;;;;;;;;;;;1.30;74.10;;;0.02;70.00;97636.50;4109266;33;20201;-83
2022/03/12 08:30:46;;;;;;;;;;;1.30;74.10;;;0.00;70.24;97638.53;4107986;33;20194;-82
2022/03/12 08:33:14;;;;;;;;;;;1.30;74.20;;;-0.02;70.33;97636.00;4108613;33;19902;-82
2022/03/12 08:35:43;;;;;;;;;;;1.30;74.30;;;-0.02;70.39;97638.69;4109074;33;20554;-82
2022/03/12 08:38:11;;;;;;;;;;;1.30;75.20;;;-0.03;70.28;97630.78;4131923;33;20240;-82
2022/03/12 08:40:40;;;;;;;;;;;1.30;74.40;;;-0.04;70.25;97629.09;4108103;33;20270;-83
2022/03/12 08:43:08;;;;;;;;;;;1.30;74.40;;;-0.06;70.45;97634.63;4118827;33;19907;-82
2022/03/12 08:45:37;;;;;;;;;;;1.30;74.40;;;-0.08;70.56;97625.91;4104978;34;20209;-82
2022/03/12 08:48:07;;;;;;;;;;;1.30;74.40;;;-0.09;70.61;97628.75;4124022;33;19910;-82
2022/03/12 08:50:36;;;;;;;;;;;1.30;74.40;;;-0.10;70.30;97627.94;4114007;33;20118;-82
2022/03/12 08:53:04;;;;;;;;;;;1.30;74.50;;;-0.12;70.74;97632.63;4114329;33;19909;-82
2022/03/12 08:55:33;;;;;;;;;;;1.30;74.60;;;-0.13;70.54;97633.63;4139003;33;20195;-82
2022/03/12 08:58:02;;;;;;;;;;;1.20;74.50;;;-0.14;70.72;97626.56;4115740;33;19914;-83
2022/03/12 09:00:30;;;;;;;;;;;1.20;74.30;;;-0.16;70.29;97625.88;4141080;33;20204;-82
2022/03/12 09:02:59;;;;;;;;;;;1.20;74.00;;;-0.19;70.45;97626.22;4138789;33;19918;-82
2022/03/12 09:05:28;;;;;;;;;;;1.20;74.20;;;-0.21;70.66;97626.41;4115288;33;20189;-83
2022/03/12 09:07:57;;;;;;;;;;;1.20;74.50;;;-0.22;70.56;97623.88;4115847;33;20223;-82
2022/03/12 09:10:25;;;;;;;;;;;1.20;74.60;;;-0.24;70.48;97629.41;4138338;33;19922;-82
2022/03/12 09:12:54;;;;;;;;;;;1.10;74.70;;;-0.27;70.77;97624.38;4139783;33;20219;-82
2022/03/12 09:15:24;;;;;;;;;;;1.10;74.70;;;-0.28;71.26;97611.09;4115506;33;20226;-82
2022/03/12 09:17:53;;;;;;;;;;;1.10;74.80;;;-0.30;71.21;97611.25;4115111;33;20203;-82
2022/03/12 09:20:21;;;;;;;;;;;1.10;74.90;;;-0.31;71.16;97605.03;4114815;33;20214;-82
2022/03/12 09:22:53;;;;;;;;;;;1.10;75.10;;;-0.30;71.42;97616.63;4138691;33;19910;-82
2022/03/12 09:25:21;;;;;;;;;;;1.10;75.30;;;-0.31;71.50;97620.34;4138369;33;19917;-83
2022/03/12 09:27:50;;;;;;;;;;;1.10;75.30;;;-0.34;71.52;97610.75;4133617;33;20204;-82
2022/03/12 09:30:19;;;;;;;;;;;1.10;75.30;;;-0.33;71.44;97609.75;4108152;33;19903;-82
2022/03/12 09:32:48;;;;;;;;;;;1.10;75.50;;;-0.34;71.30;97604.50;4133061;33;20187;-83
2022/03/12 09:35:16;;;;;;;;;;;1.10;75.40;;;-0.35;71.28;97597.44;4135165;33;19903;-83
2022/03/12 09:37:45;;;;;;;;;;;1.10;75.40;;;-0.37;71.41;97605.69;4135163;33;20214;-82
2022/03/12 09:40:16;;;;;;;;;;;1.00;75.30;;;-0.38;71.53;97598.63;4133340;33;19903;-82
2022/03/12 09:42:44;;;;;;;;;;;1.00;75.30;;;-0.39;71.75;97596.13;4109158;33;20221;-82
2022/03/12 09:45:13;;;;;;;;;;;1.00;75.40;;;-0.41;71.60;97598.13;4129802;33;19909;-82
2022/03/12 09:47:42;;;;;;;;;;;1.00;75.30;;;-0.44;71.43;97596.59;4106858;33;19918;-83
2022/03/12 09:50:11;;;;;;;;;;;1.00;75.30;;;-0.45;71.55;97592.22;4106356;33;19903;-83
2022/03/12 09:52:40;;;;;;;;;;;1.00;75.40;;;-0.45;71.86;97586.00;4130336;33;20138;-82
2022/03/12 09:55:09;;;;;;;;;;;1.00;75.50;;;-0.47;71.61;97592.41;4107093;33;20472;-82
2022/03/12 09:57:39;;;;;;;;;;;1.00;75.50;;;-0.48;71.94;97592.56;4130020;33;20519;-82
2022/03/12 10:00:11;;;;;;;;;;;0.90;75.60;;;-0.50;71.98;97590.03;4107546;33;20211;-82
2022/03/12 10:02:42;;;;;;;;;;;1.00;75.60;;;-0.50;71.96;97591.91;4132010;33;20206;-82
2022/03/12 10:05:13;;;;;;;;;;;0.90;75.70;;;-0.52;71.84;97589.38;4131736;33;19903;-82
2022/03/12 10:07:42;;;;;;;;;;;0.90;75.70;;;-0.53;71.92;97587.69;4109062;33;20397;-82
2022/03/12 10:10:15;;;;;;;;;;;0.90;75.80;;;-0.54;72.08;97577.94;4131935;33;20418;-82
2022/03/12 10:12:46;;;;;;;;;;;0.90;75.70;;;-0.55;71.81;97581.63;4110805;33;20551;-81
2022/03/12 10:15:15;;;;;;;;;;;0.90;75.60;;;-0.54;72.21;97582.47;4133787;33;20203;-82
2022/03/12 10:17:44;;;;;;;;;;;0.90;75.80;;;-0.56;72.39;97579.09;4139282;33;20221;-81
2022/03/12 10:20:13;;;;;;;;;;;0.90;75.80;;;-0.57;72.14;97572.03;4115838;33;20205;-82
2022/03/12 10:22:43;;;;;;;;;;;0.90;75.80;;;-0.60;71.88;97573.22;4135662;33;20501;-82
2022/03/12 10:25:13;;;;;;;;;;;0.90;75.80;;;-0.62;72.44;97565.31;4110258;33;20213;-82
2022/03/12 10:27:42;;;;;;;;;;;0.90;75.90;;;-0.63;72.06;97563.63;4133630;33;20204;-82
2022/03/12 10:30:12;;;;;;;;;;;0.80;75.80;;;-0.63;72.15;97563.63;4109622;33;19903;-83
2022/03/12 10:32:45;;;;;;;;;;;0.80;75.90;;;-0.64;72.67;97561.09;4110319;33;20214;-83
2022/03/12 10:35:15;;;;;;;;;;;0.80;76.00;;;-0.65;72.40;97552.19;4135972;33;19910;-83
2022/03/12 10:37:43;;;;;;;;;;;0.80;76.00;;;-0.66;72.33;97552.38;4139235;33;20206;-82
2022/03/12 10:40:13;;;;;;;;;;;0.80;76.10;;;-0.67;72.27;97551.50;4113328;33;20161;-82
2022/03/12 10:42:47;;;;;;;;;;;0.80;76.20;;;-0.68;72.77;97549.81;4132603;33;20194;-83
2022/03/12 10:45:18;;;;;;;;;;;0.80;76.20;;;-0.69;72.50;97541.94;4109304;33;19909;-83
2022/03/12 10:47:49;;;;;;;;;;;0.80;76.20;;;-0.70;72.63;97537.56;4110245;33;20195;-83
2022/03/12 10:50:18;;;;;;;;;;;0.80;76.20;;;-0.74;72.52;97534.38;4132336;33;20213;-82
2022/03/12 10:52:49;;;;;;;;;;;0.80;76.20;;;-0.73;72.42;97529.81;4131716;33;20207;-82
2022/03/12 10:55:24;;;;;;;;;;;0.80;76.10;;;-0.74;72.97;97531.69;4109228;33;20192;-83
2022/03/12 10:58:04;;;;;;;;;;;0.70;76.20;;;-0.77;72.41;97529.31;4132348;33;19909;-83
2022/03/12 11:00:37;;;;;;;;;;;0.70;76.30;;;-0.77;72.41;97523.94;4108687;33;19903;-83
2022/03/12 11:03:11;;;;;;;;;;;0.70;76.40;;;-0.78;72.57;97519.56;4110438;33;20512;-83
2022/03/12 11:05:42;;;;;;;;;;;0.70;76.40;;;-0.79;72.90;97521.44;4109988;33;20201;-83
2022/03/12 11:08:16;;;;;;;;;;;0.70;76.50;;;-0.80;72.76;97518.88;4109618;33;19903;-83
2022/03/12 11:10:51;;;;;;;;;;;0.70;76.50;;;-0.82;72.71;97516.38;4133021;33;20199;-83
2022/03/12 11:13:42;;;;;;;;;;;0.70;76.50;;;-0.83;72.80;97503.09;4136698;33;19910;-82
2022/03/12 11:16:20;;;;;;;;;;;0.60;76.40;;;-0.84;72.52;97501.44;4110070;33;20216;-83
2022/03/12 11:19:07;;;;;;;;;;;0.60;76.40;;;-0.85;72.60;97502.44;4116884;33;19903;-83
2022/03/12 11:21:39;;;;;;;;;;;0.60;76.50;;;-0.87;72.68;97499.88;4114583;34;20237;-83
2022/03/12 11:24:09;;;;;;;;;;;0.60;76.50;;;-0.88;72.83;97500.91;4091788;34;20260;-83
2022/03/12 11:26:46;;;;;;;;;;;0.60;76.50;;;-0.89;72.76;97499.22;4092165;34;19930;-83
2022/03/12 11:29:15;;;;;;;;;;;0.60;76.50;;;-0.89;72.77;97493.00;4113692;34;19906;-83
2022/03/12 11:31:49;;;;;;;;;;;0.60;76.50;;;-0.91;72.55;97489.63;4115146;34;19903;-83
2022/03/12 11:34:20;;;;;;;;;;;0.60;76.50;;;-0.93;72.97;97487.94;4116511;34;19903;-83
2022/03/12 11:37:06;;;;;;;;;;;0.60;76.60;;;-0.93;73.01;97489.81;4114761;34;19904;-83